Time;durP1;ratioP1;P1;durP2;ratioP2;P2;SDS_P1;SDS_P2;PMS_P1;PMS_P2;Temp;Humidity;BMP_temperature;BMP_pressure;BME280_temperature;BME280_humidity;BME280_pressure;Samples;Min_cycle;Max_cycle;Signal;HPM_P1;HPM_P2
2023/10/17 00:01:44;;;;;;;;;2.00;2.00;;;;;23.15;51.70;99377.53;5077451;28;46180;-81
2023/10/17 00:06:45;;;;;;;;;2.00;2.00;;;;;23.23;51.58;99375.41;5077398;27;45412;-80
2023/10/17 00:09:24;;;;;;;;;3.00;2.67;;;;;23.03;51.46;99335.41;5077298;27;45932;-78
2023/10/17 00:14:27;;;;;;;;;3.00;2.33;;;;;23.32;51.56;99363.53;5077541;27;45294;-78
2023/10/17 00:16:55;;;;;;;;;1.67;1.67;;;;;22.78;51.40;99242.31;5077109;27;45286;-79
2023/10/17 00:19:28;;;;;;;;;1.00;1.00;;;;;23.38;50.86;99351.75;5076529;28;45275;-80
2023/10/17 00:21:54;;;;;;;;;2.00;1.33;;;;;23.14;51.08;99300.34;5077300;28;45271;-80
2023/10/17 00:24:20;;;;;;;;;3.00;2.00;;;;;23.35;51.27;99331.41;5077621;27;45621;-78
2023/10/17 00:26:47;;;;;;;;;2.00;2.00;;;;;23.44;50.93;99338.19;5077413;27;45453;-81
2023/10/17 00:29:14;;;;;;;;;2.33;2.33;;;;;23.43;50.85;99328.44;5077379;27;45876;-80
2023/10/17 00:31:40;;;;;;;;;2.33;2.00;;;;;23.56;51.16;99348.31;5076788;27;46220;-80
2023/10/17 00:34:13;;;;;;;;;1.33;1.33;;;;;23.43;50.93;99315.09;5076676;27;46267;-80
2023/10/17 00:37:00;;;;;;;;;3.33;2.00;;;;;23.63;50.85;99341.78;5077200;27;45301;-80
2023/10/17 00:39:32;;;;;;;;;2.67;2.67;;;;;23.21;50.49;99267.19;5077296;27;45223;-75
2023/10/17 00:44:39;;;;;;;;;2.67;2.67;;;;;23.73;50.31;99320.91;5077040;27;45515;-80
2023/10/17 00:47:18;;;;;;;;;2.00;2.00;;;;;23.56;49.72;99292.34;5076988;28;45413;-80
2023/10/17 00:49:45;;;;;;;;;2.00;1.00;;;;;23.77;49.87;99321.66;5077492;27;45991;-80
2023/10/17 00:52:24;;;;;;;;;2.00;2.00;;;;;23.82;49.80;99317.03;5076794;27;46237;-80
2023/10/17 00:54:51;;;;;;;;;2.33;2.33;;;;;23.85;49.88;99321.34;5077150;27;45511;-80
2023/10/17 00:57:17;;;;;;;;;3.00;2.00;;;;;23.86;50.22;99331.94;5077012;27;45361;-80
2023/10/17 00:59:49;;;;;;;;;2.00;2.00;;;;;23.69;49.51;99297.97;5076965;27;45412;-80
2023/10/17 01:02:15;;;;;;;;;1.00;1.00;;;;;23.87;49.82;99315.00;5075885;27;45641;-79
2023/10/17 01:04:44;;;;;;;;;3.33;3.00;;;;;23.74;49.61;99284.47;5076238;27;45852;-79
2023/10/17 01:07:12;;;;;;;;;2.00;2.00;;;;;23.85;49.77;99306.19;5076277;27;45249;-80
2023/10/17 01:09:38;;;;;;;;;3.00;3.00;;;;;23.75;49.66;99288.84;5076388;27;45418;-76
2023/10/17 01:12:10;;;;;;;;;3.00;3.00;;;;;23.81;49.40;99307.28;5076276;27;45503;-80
2023/10/17 01:14:37;;;;;;;;;1.67;1.67;;;;;23.93;49.23;99312.06;5076600;27;45427;-80
2023/10/17 01:17:07;;;;;;;;;2.00;2.00;;;;;23.79;49.36;99287.81;5075591;27;45515;-79
2023/10/17 01:19:35;;;;;;;;;1.67;1.67;;;;;23.87;49.32;99296.34;5076214;27;45538;-79
2023/10/17 01:22:00;;;;;;;;;2.00;2.00;;;;;23.90;48.93;99306.88;5076285;28;45528;-80
2023/10/17 01:24:26;;;;;;;;;2.00;2.00;;;;;23.91;48.53;99297.91;5076728;27;45383;-78
2023/10/17 01:26:53;;;;;;;;;1.00;1.00;;;;;24.02;48.97;99306.31;5077274;27;45235;-74
2023/10/17 01:29:21;;;;;;;;;2.00;2.00;;;;;23.91;48.93;99286.41;5077830;27;45235;-80
2023/10/17 01:31:48;;;;;;;;;4.00;2.67;;;;;23.63;48.37;99236.94;5079723;27;45560;-80
2023/10/17 01:34:14;;;;;;;;;2.00;2.00;;;;;24.08;48.63;99305.19;5079844;27;45480;-80
2023/10/17 01:36:42;;;;;;;;;1.67;1.00;;;;;23.97;48.34;99280.78;5080223;27;45412;-78
2023/10/17 01:39:11;;;;;;;;;1.00;1.00;;;;;24.07;48.20;99289.22;5080470;27;45306;-79
2023/10/17 01:41:46;;;;;;;;;2.00;2.00;;;;;24.09;48.05;99296.22;5080033;27;46063;-80
2023/10/17 01:44:12;;;;;;;;;2.00;2.00;;;;;24.11;48.17;99299.69;5080089;27;45307;-80
2023/10/17 01:46:38;;;;;;;;;3.00;2.00;;;;;24.09;48.33;99309.56;5096351;27;45483;-79
2023/10/17 01:49:10;;;;;;;;;2.00;2.00;;;;;24.11;48.00;99301.50;5080922;27;45300;-77
2023/10/17 01:51:36;;;;;;;;;2.00;2.00;;;;;23.62;47.93;99203.22;5093300;27;46111;-80
2023/10/17 01:54:13;;;;;;;;;2.00;2.00;;;;;23.90;48.20;99258.00;5097603;27;44783;-79
2023/10/17 01:56:40;;;;;;;;;2.00;2.00;;;;;24.07;47.90;99289.22;5098159;27;45443;-79
2023/10/17 01:59:48;;;;;;;;;2.00;2.00;;;;;24.10;47.83;99291.78;5114057;27;45489;-79
2023/10/17 02:01:57;;;;;;;;;1.00;1.00;;;;;23.86;48.22;99248.41;5093627;27;46334;-80
2023/10/17 02:04:29;;;;;;;;;2.00;2.00;;;;;24.12;48.09;99297.91;5105605;27;44601;-81
2023/10/17 02:07:00;;;;;;;;;3.00;2.00;;;;;24.02;48.03;99271.63;5105838;27;44774;-79
2023/10/17 02:11:55;;;;;;;;;2.00;2.00;;;;;23.92;47.77;99248.13;5093055;27;45935;-80
2023/10/17 02:14:22;;;;;;;;;1.00;1.00;;;;;24.07;48.03;99270.56;5078273;28;45429;-76
2023/10/17 02:16:51;;;;;;;;;2.00;2.00;;;;;23.91;47.83;99241.91;5078228;28;45307;-81
2023/10/17 02:19:21;;;;;;;;;2.00;2.00;;;;;24.08;48.18;99273.16;5078063;28;45765;-79
2023/10/17 02:21:50;;;;;;;;;2.00;2.00;;;;;24.11;47.64;99273.00;5079051;27;46105;-78
2023/10/17 02:24:21;;;;;;;;;3.00;2.67;;;;;24.03;47.49;99261.81;5079141;27;45340;-80
2023/10/17 02:26:56;;;;;;;;;2.00;2.00;;;;;23.90;47.25;99231.34;5079252;27;45353;-80
2023/10/17 02:29:25;;;;;;;;;2.67;2.00;;;;;24.14;47.44;99272.03;5079189;27;45405;-80
2023/10/17 02:31:52;;;;;;;;;2.00;2.00;;;;;24.14;47.38;99264.03;5078923;27;46227;-79
2023/10/17 02:34:22;;;;;;;;;2.00;2.00;;;;;24.12;47.32;99263.22;5079024;27;45209;-80
2023/10/17 02:36:54;;;;;;;;;2.67;2.67;;;;;24.14;47.56;99270.22;5078841;27;45463;-78
2023/10/17 02:39:22;;;;;;;;;2.67;1.67;;;;;24.17;47.43;99263.84;5079312;27;45230;-80
2023/10/17 02:42:03;;;;;;;;;3.00;2.67;;;;;24.20;47.26;99258.41;5078462;27;45430;-80
2023/10/17 02:44:31;;;;;;;;;3.00;2.00;;;;;24.20;47.40;99261.06;5078739;27;45354;-77
2023/10/17 02:46:58;;;;;;;;;2.00;1.00;;;;;23.91;47.43;99217.91;5079140;28;45338;-79
2023/10/17 02:49:24;;;;;;;;;2.00;2.00;;;;;24.19;47.43;99272.66;5078814;27;45544;-81
2023/10/17 02:51:54;;;;;;;;;2.00;2.00;;;;;24.21;47.66;99268.13;5078435;28;46540;-80
2023/10/17 02:54:20;;;;;;;;;2.33;2.00;;;;;24.20;47.34;99272.59;5078718;27;45941;-79
2023/10/17 02:56:46;;;;;;;;;1.00;1.00;;;;;24.08;47.28;99246.50;5078921;27;45369;-80
2023/10/17 02:59:13;;;;;;;;;2.00;2.00;;;;;24.17;47.29;99258.53;5078585;27;45405;-80
2023/10/17 03:01:42;;;;;;;;;2.00;2.00;;;;;24.21;47.42;99262.78;5078581;27;45534;-80
2023/10/17 03:04:13;;;;;;;;;2.33;2.00;;;;;24.21;47.14;99268.13;5078402;27;46340;-79
2023/10/17 03:06:43;;;;;;;;;2.33;2.00;;;;;24.20;47.68;99263.72;5078643;27;45278;-79
2023/10/17 03:09:32;;;;;;;;;1.00;1.00;;;;;24.19;47.55;99260.22;5078381;27;45652;-80
2023/10/17 03:17:04;;;;;;;;;3.00;2.33;;;;;24.05;47.49;99227.94;5078501;27;45370;-80
2023/10/17 03:19:32;;;;;;;;;1.33;1.00;;;;;24.19;47.07;99245.97;5078802;27;45539;-81
2023/10/17 03:22:16;;;;;;;;;1.00;1.00;;;;;24.15;47.41;99239.94;5078493;27;46236;-80
2023/10/17 03:24:44;;;;;;;;;2.67;2.00;;;;;23.87;47.44;99192.31;5078126;27;45311;-81
2023/10/17 03:27:23;;;;;;;;;2.33;2.00;;;;;24.12;47.21;99236.53;5078284;27;45556;-80
2023/10/17 03:29:50;;;;;;;;;2.00;2.00;;;;;24.09;47.50;99248.19;5075847;28;45288;-81
2023/10/17 03:32:15;;;;;;;;;2.00;2.00;;;;;24.07;47.91;99243.88;5093761;27;47126;-81
2023/10/17 03:34:45;;;;;;;;;2.00;2.00;;;;;24.10;47.77;99246.41;5078184;27;45432;-80
2023/10/17 03:39:55;;;;;;;;;2.00;2.00;;;;;23.87;47.80;99205.66;5078146;27;45460;-81
2023/10/17 03:42:41;;;;;;;;;2.00;2.00;;;;;24.06;47.82;99239.50;5077925;27;45286;-79
2023/10/17 03:45:26;;;;;;;;;2.00;2.00;;;;;24.04;47.55;99238.72;5077693;27;45374;-80
2023/10/17 03:47:53;;;;;;;;;3.00;2.67;;;;;24.07;47.13;99238.56;5077744;27;45246;-80
2023/10/17 03:50:42;;;;;;;;;2.67;2.00;;;;;24.08;47.63;99233.16;5078033;27;45447;-80
2023/10/17 03:53:15;;;;;;;;;2.00;2.00;;;;;24.10;47.60;99241.09;5076903;27;46085;-81
2023/10/17 03:55:51;;;;;;;;;2.00;2.00;;;;;24.12;47.07;99231.22;5077054;27;45451;-81
2023/10/17 03:58:25;;;;;;;;;1.00;1.00;;;;;24.03;47.07;99221.81;5083759;27;45519;-81
2023/10/17 04:00:57;;;;;;;;;1.33;1.33;;;;;24.03;46.71;99211.16;5075666;28;45640;-79
2023/10/17 04:03:23;;;;;;;;;2.00;2.00;;;;;24.14;47.16;99224.00;5074395;28;46015;-81
2023/10/17 04:11:36;;;;;;;;;1.00;0.00;;;;;24.04;47.43;99204.88;5058828;27;45543;-80
2023/10/17 04:14:02;;;;;;;;;3.00;2.00;;;;;24.11;46.61;99213.47;5074250;28;45469;-75
2023/10/17 04:16:34;;;;;;;;;2.00;2.00;;;;;23.75;47.00;99147.53;5076558;28;45394;-80
2023/10/17 04:19:01;;;;;;;;;2.00;2.00;;;;;24.09;47.01;99218.00;5074577;28;45487;-80
2023/10/17 04:23:55;;;;;;;;;1.33;1.33;;;;;23.84;46.66;99149.81;5076274;27;45627;-80
2023/10/17 04:26:27;;;;;;;;;1.00;1.00;;;;;24.10;46.71;99177.91;5076425;27;45422;-79
2023/10/17 04:29:43;;;;;;;;;1.67;1.67;;;;;23.87;46.82;99146.13;5076434;27;45322;-74
2023/10/17 04:31:47;;;;;;;;;2.00;2.00;;;;;24.13;46.68;99192.91;5068129;28;45540;-80
2023/10/17 04:34:21;;;;;;;;;2.00;2.00;;;;;24.02;47.43;99188.94;5076209;28;46220;-75
2023/10/17 04:36:56;;;;;;;;;2.67;2.00;;;;;24.00;47.26;99185.47;5073836;28;45418;-77
2023/10/17 04:39:48;;;;;;;;;2.33;1.67;;;;;23.94;47.53;99163.59;5076492;28;45476;-79
2023/10/17 04:42:24;;;;;;;;;2.00;2.00;;;;;24.05;47.34;99187.06;5075196;28;45318;-79
2023/10/17 04:44:51;;;;;;;;;2.33;2.00;;;;;24.09;47.55;99191.31;5081490;27;46968;-75
2023/10/17 04:49:54;;;;;;;;;1.00;1.00;;;;;23.74;47.79;99146.69;5076635;28;45439;-80
2023/10/17 04:52:30;;;;;;;;;2.00;2.00;;;;;23.98;47.52;99199.84;5076748;27;45410;-81
2023/10/17 04:55:17;;;;;;;;;1.33;1.33;;;;;23.96;47.52;99191.91;5076217;27;45595;-80
2023/10/17 05:01:10;;;;;;;;;3.00;2.00;;;;;24.02;47.81;99191.63;5077124;27;45470;-80
2023/10/17 05:03:32;;;;;;;;;3.00;2.00;;;;;23.77;47.03;99132.31;5077634;27;45508;-80
2023/10/17 06:17:06;;;;;;;;;4.00;3.67;;;;;24.15;47.68;99226.59;5078322;28;45204;-80
2023/10/17 06:19:32;;;;;;;;;3.00;2.67;;;;;23.99;47.54;99204.22;5078596;27;45524;-80
2023/10/17 06:27:50;;;;;;;;;1.00;1.00;;;;;24.19;47.38;99230.84;5076610;27;45477;-80
2023/10/17 06:30:27;;;;;;;;;2.00;2.00;;;;;23.93;47.73;99189.38;5078381;28;45390;-80
2023/10/17 06:35:44;;;;;;;;;2.00;2.00;;;;;23.90;47.38;99175.34;5076768;28;45298;-79
2023/10/17 06:38:10;;;;;;;;;2.00;2.00;;;;;24.09;47.75;99204.66;5076589;28;45370;-79
2023/10/17 06:40:45;;;;;;;;;1.00;1.00;;;;;24.24;47.87;99224.44;5078514;27;45441;-80
2023/10/17 06:43:27;;;;;;;;;2.00;2.00;;;;;24.08;47.36;99198.47;5076766;28;45357;-80
2023/10/17 06:45:55;;;;;;;;;4.00;3.67;;;;;24.27;47.51;99219.78;5078407;27;45643;-78
2023/10/17 06:48:33;;;;;;;;;2.67;2.67;;;;;24.30;47.77;99229.47;5078731;27;45385;-79
2023/10/17 06:53:47;;;;;;;;;2.67;2.00;;;;;24.30;47.28;99235.66;5078231;27;45463;-80
2023/10/17 06:56:13;;;;;;;;;2.00;2.00;;;;;24.35;47.26;99239.00;5078406;28;45951;-77
2023/10/17 06:58:39;;;;;;;;;2.00;2.00;;;;;24.25;47.71;99204.81;5077636;27;45443;-80
2023/10/17 07:01:19;;;;;;;;;2.00;2.00;;;;;24.39;47.10;99229.91;5077579;27;45453;-77
2023/10/17 07:03:45;;;;;;;;;3.00;3.00;;;;;24.50;47.10;99239.19;5078177;27;45685;-79
2023/10/17 07:06:11;;;;;;;;;2.00;1.33;;;;;24.50;47.40;99220.50;5077110;28;45571;-81
2023/10/17 07:08:37;;;;;;;;;2.67;2.00;;;;;24.61;46.79;99228.88;5076981;27;45359;-84
2023/10/17 07:11:09;;;;;;;;;3.33;3.00;;;;;24.51;46.66;99206.25;5078505;27;45946;-80
2023/10/17 07:16:33;;;;;;;;;1.67;1.00;;;;;24.71;46.22;99203.47;5078189;27;45413;-81
2023/10/17 07:24:26;;;;;;;;;6.00;4.67;;;;;25.04;46.30;99231.22;5076000;28;45662;-80
2023/10/17 07:26:52;;;;;;;;;11.67;11.00;;;;;25.28;46.09;99239.84;5076095;27;45479;-82
2023/10/17 07:29:22;;;;;;;;;3.67;3.00;;;;;25.39;45.29;99219.63;5077295;27;45429;-80
2023/10/17 07:31:53;;;;;;;;;2.00;2.00;;;;;25.36;44.99;99168.97;5077529;27;45524;-81
2023/10/17 07:34:23;;;;;;;;;3.00;3.00;;;;;25.72;44.61;99189.34;5091653;27;45526;-80
2023/10/17 07:36:58;;;;;;;;;3.00;3.00;;;;;26.21;44.18;99225.97;5077110;27;45465;-80
2023/10/17 07:39:36;;;;;;;;;1.33;1.33;;;;;26.27;43.12;99209.56;5077336;28;45350;-82
2023/10/17 07:42:04;;;;;;;;;3.67;3.67;;;;;27.21;42.03;99222.06;5077643;27;45543;-84
2023/10/17 07:44:34;;;;;;;;;2.00;2.00;;;;;28.40;40.33;99240.66;5076783;27;46471;-80
2023/10/17 07:49:37;;;;;;;;;2.00;1.33;;;;;28.16;40.00;99243.09;5077472;27;47162;-79
2023/10/17 07:52:22;;;;;;;;;2.00;2.00;;;;;27.82;40.62;99236.28;5057613;28;45485;-82
2023/10/17 07:57:40;;;;;;;;;2.00;2.00;;;;;26.92;42.01;99163.03;5078685;27;45508;-82
2023/10/17 08:03:00;;;;;;;;;1.00;1.00;;;;;27.11;42.26;99233.31;5075081;27;45446;-83
2023/10/17 08:05:36;;;;;;;;;2.00;2.00;;;;;26.95;42.10;99219.09;5076457;28;46064;-81
2023/10/17 08:08:08;;;;;;;;;2.67;2.67;;;;;27.08;42.10;99229.94;5076601;27;45460;-80
2023/10/17 08:10:39;;;;;;;;;2.00;2.00;;;;;27.24;42.10;99238.88;5073264;28;45391;-80
2023/10/17 08:13:07;;;;;;;;;2.67;2.67;;;;;27.24;41.34;99201.34;5076356;27;45577;-80
2023/10/17 08:15:38;;;;;;;;;2.00;1.00;;;;;27.66;41.39;99234.53;5075905;28;45579;-80
2023/10/17 08:18:14;;;;;;;;;1.00;1.00;;;;;27.52;41.50;99165.63;5076245;28;45338;-80
2023/10/17 08:23:29;;;;;;;;;2.00;2.00;;;;;27.79;40.66;99186.31;5077140;27;45385;-80
2023/10/17 08:26:03;;;;;;;;;2.00;2.00;;;;;28.04;39.80;99206.28;5076529;27;46447;-79
2023/10/17 08:31:22;;;;;;;;;2.00;2.00;;;;;28.60;40.24;99225.94;5076610;27;45297;-82
2023/10/17 08:36:47;;;;;;;;;3.00;3.00;;;;;28.79;39.00;99203.22;5076378;28;45511;-82
2023/10/17 08:39:51;;;;;;;;;3.00;3.00;;;;;29.51;38.09;99166.91;5087725;27;45487;-79
2023/10/17 08:42:14;;;;;;;;;2.33;2.33;;;;;30.12;37.61;99207.47;5079583;27;45438;-81
2023/10/17 08:44:46;;;;;;;;;3.00;3.00;;;;;29.94;37.48;99201.56;5080705;28;45331;-79
2023/10/17 08:47:18;;;;;;;;;3.00;2.33;;;;;29.76;38.04;99210.94;5080390;27;45327;-80
2023/10/17 08:49:45;;;;;;;;;4.00;4.00;;;;;29.65;38.44;99187.47;5080353;27;45339;-77
2023/10/17 08:52:27;;;;;;;;;2.33;2.33;;;;;29.72;38.56;99196.88;5080370;28;45514;-82
2023/10/17 08:54:53;;;;;;;;;2.00;2.00;;;;;29.92;38.00;99186.47;5080935;27;45484;-81
2023/10/17 08:57:19;;;;;;;;;2.00;1.67;;;;;30.17;37.70;99192.81;5080378;27;46188;-77
2023/10/17 09:02:17;;;;;;;;;3.00;3.00;;;;;30.19;36.81;99183.63;5079139;28;45302;-84
2023/10/17 09:04:43;;;;;;;;;3.00;2.67;;;;;29.86;36.93;99163.53;5078891;27;45305;-81
2023/10/17 09:07:18;;;;;;;;;3.00;3.00;;;;;29.92;37.43;99167.63;5077758;27;45479;-79
2023/10/17 09:09:47;;;;;;;;;5.00;4.00;;;;;30.23;37.89;99168.97;5079195;27;45587;-82
2023/10/17 09:12:21;;;;;;;;;2.00;2.00;;;;;30.49;36.85;99112.31;5079784;27;45315;-83
2023/10/17 09:14:56;;;;;;;;;2.00;2.00;;;;;31.30;35.18;99160.03;5085349;27;45558;-75
2023/10/17 09:17:30;;;;;;;;;4.67;3.00;;;;;31.63;35.55;99152.09;5081978;28;45552;-78
2023/10/17 09:20:11;;;;;;;;;4.00;4.00;;;;;31.81;34.40;99149.75;5083723;27;45322;-79
2023/10/17 09:22:38;;;;;;;;;2.33;2.00;;;;;32.29;34.84;99174.66;5083683;27;45469;-80
2023/10/17 09:25:19;;;;;;;;;3.00;3.00;;;;;32.73;34.12;99165.69;5083628;27;45512;-80
2023/10/17 09:28:02;;;;;;;;;1.00;1.00;;;;;33.16;33.71;99159.38;5084739;27;46192;-79
2023/10/17 09:30:29;;;;;;;;;2.00;2.00;;;;;33.24;33.05;99149.59;5083167;28;45290;-79
2023/10/17 09:32:56;;;;;;;;;3.00;3.00;;;;;33.14;33.79;99143.25;5082693;28;45938;-79
2023/10/17 09:35:22;;;;;;;;;2.67;2.67;;;;;33.21;32.67;99154.44;5083700;28;45365;-79
2023/10/17 09:37:52;;;;;;;;;2.00;2.00;;;;;32.86;32.60;99093.34;5082753;27;45312;-79
2023/10/17 09:40:53;;;;;;;;;2.67;2.67;;;;;33.31;32.14;99140.94;5082818;28;45432;-80
2023/10/17 09:43:11;;;;;;;;;2.67;1.67;;;;;33.35;32.51;99139.69;5079020;28;45600;-80
2023/10/17 09:45:41;;;;;;;;;1.00;1.00;;;;;33.61;31.60;99143.66;5084037;28;45429;-80
2023/10/17 09:48:07;;;;;;;;;2.00;2.00;;;;;33.91;32.15;99130.28;5081995;27;46263;-80
2023/10/17 09:50:37;;;;;;;;;1.00;1.00;;;;;34.04;31.23;99136.28;5080713;27;45356;-80
2023/10/17 09:53:28;;;;;;;;;4.00;2.00;;;;;34.08;31.71;99110.63;5081173;27;45428;-81
2023/10/17 09:55:58;;;;;;;;;1.67;1.33;;;;;34.45;30.66;99131.69;5081948;27;45483;-80
2023/10/17 09:58:31;;;;;;;;;2.33;2.33;;;;;34.39;31.22;99113.28;5080208;28;45349;-80
2023/10/17 10:01:06;;;;;;;;;1.67;1.67;;;;;34.25;31.18;99104.56;5081132;28;45409;-80
2023/10/17 10:03:35;;;;;;;;;2.33;2.00;;;;;33.79;31.12;99122.25;5080637;27;45376;-78
2023/10/17 10:06:25;;;;;;;;;3.67;2.00;;;;;33.17;31.56;99104.28;5079161;27;45304;-78
2023/10/17 10:08:59;;;;;;;;;2.00;1.33;;;;;32.68;32.39;99083.13;5077417;28;45650;-78
2023/10/17 10:11:50;;;;;;;;;2.33;2.00;;;;;32.62;32.32;99083.66;5078859;27;45552;-79
2023/10/17 10:14:30;;;;;;;;;2.33;2.33;;;;;32.34;32.34;99104.00;5078559;27;45762;-78
2023/10/17 10:16:57;;;;;;;;;2.33;2.00;;;;;31.90;33.36;99076.97;5077497;27;45392;-77
2023/10/17 10:19:43;;;;;;;;;2.67;2.67;;;;;31.80;33.50;99099.47;5078404;27;46210;-77
2023/10/17 10:22:11;;;;;;;;;4.00;4.00;;;;;31.47;33.71;99098.47;5072172;27;45761;-77
2023/10/17 10:24:39;;;;;;;;;3.00;3.00;;;;;31.35;34.50;99111.06;5078433;27;45762;-78
2023/10/17 10:27:19;;;;;;;;;3.33;3.33;;;;;31.22;34.67;99099.56;5079218;27;45444;-76
2023/10/17 10:29:52;;;;;;;;;3.00;3.00;;;;;31.21;35.24;99114.88;5081087;28;46274;-81
2023/10/17 10:32:37;;;;;;;;;2.00;2.00;;;;;31.27;35.23;99108.13;5081288;27;45457;-80
2023/10/17 10:35:05;;;;;;;;;6.67;6.00;;;;;31.15;34.83;99103.72;5082939;28;45429;-80
2023/10/17 10:37:48;;;;;;;;;5.00;4.67;;;;;31.12;35.29;99111.06;5082256;27;45562;-80
2023/10/17 10:40:16;;;;;;;;;3.00;3.00;;;;;31.02;35.34;99115.47;5078423;27;45673;-79
2023/10/17 10:42:47;;;;;;;;;3.00;3.00;;;;;30.73;34.37;99121.22;5078393;27;45468;-79
2023/10/17 10:45:29;;;;;;;;;3.33;2.33;;;;;30.25;35.52;99094.28;5078075;27;45440;-78
2023/10/17 10:47:58;;;;;;;;;2.67;2.67;;;;;30.17;35.71;99099.38;5078008;27;45572;-75
2023/10/17 10:50:31;;;;;;;;;3.67;2.67;;;;;29.84;36.19;99098.19;5077933;28;46204;-76
2023/10/17 10:53:01;;;;;;;;;4.00;4.00;;;;;29.78;36.21;99100.47;5077635;28;45477;-80
2023/10/17 10:55:27;;;;;;;;;4.67;3.33;;;;;29.45;36.16;99061.56;5077693;27;45472;-80
2023/10/17 10:57:54;;;;;;;;;3.00;3.00;;;;;29.54;36.34;99098.56;5077688;27;45585;-80
2023/10/17 11:00:20;;;;;;;;;3.00;3.00;;;;;29.26;36.69;99059.31;5077582;27;46001;-80
2023/10/17 11:02:46;;;;;;;;;3.00;2.00;;;;;29.33;36.81;99069.53;5077942;27;45822;-80
2023/10/17 11:05:14;;;;;;;;;3.00;3.00;;;;;29.34;36.80;99086.53;5078235;27;45516;-79
2023/10/17 11:07:41;;;;;;;;;5.33;5.33;;;;;29.35;37.24;99077.50;5077577;28;45514;-81
2023/10/17 11:10:10;;;;;;;;;4.00;3.33;;;;;29.46;37.04;99085.66;5077217;27;45547;-78
2023/10/17 11:12:37;;;;;;;;;3.00;3.00;;;;;29.50;37.48;99081.75;5077965;27;45577;-80
2023/10/17 11:15:26;;;;;;;;;5.00;3.33;;;;;29.47;37.34;99082.00;5077779;27;45330;-80
2023/10/17 11:18:03;;;;;;;;;3.67;3.67;;;;;29.57;37.31;99075.97;5079015;27;45514;-81
2023/10/17 11:20:28;;;;;;;;;2.67;2.67;;;;;29.40;37.10;99016.16;5078510;27;45591;-80
2023/10/17 11:22:55;;;;;;;;;3.33;3.00;;;;;29.71;36.94;99051.59;5078248;28;45397;-82
2023/10/17 11:25:26;;;;;;;;;4.67;4.67;;;;;29.87;36.45;99067.53;5077958;27;45472;-80
2023/10/17 11:28:08;;;;;;;;;4.00;4.00;;;;;30.05;36.02;99057.22;5078018;27;45309;-78
2023/10/17 11:30:42;;;;;;;;;2.33;2.33;;;;;30.36;35.75;99054.94;5077596;28;45467;-80
2023/10/17 11:33:29;;;;;;;;;2.00;2.00;;;;;30.57;35.68;99049.75;5078069;27;45462;-79
2023/10/17 11:35:58;;;;;;;;;4.33;4.00;;;;;30.80;35.92;99037.16;5078713;27;45355;-79
2023/10/17 11:38:40;;;;;;;;;3.00;3.00;;;;;31.05;35.73;99050.47;5078524;27;45334;-79
2023/10/17 11:41:07;;;;;;;;;4.67;4.67;;;;;31.02;35.37;99017.50;5077632;27;46385;-79
2023/10/17 11:43:42;;;;;;;;;3.67;3.67;;;;;31.21;35.30;99025.00;5077699;28;45402;-80
2023/10/17 11:46:14;;;;;;;;;3.67;3.00;;;;;31.34;34.08;99044.63;5077785;27;45338;-80
2023/10/17 11:48:44;;;;;;;;;6.00;6.00;;;;;31.06;34.34;98992.03;5077748;27;45594;-80
2023/10/17 11:51:13;;;;;;;;;4.00;4.00;;;;;31.30;33.84;99021.56;5077150;27;45527;-80
2023/10/17 11:54:07;;;;;;;;;3.67;3.67;;;;;31.26;34.95;99020.94;5077636;27;45418;-80
2023/10/17 11:56:34;;;;;;;;;4.00;4.00;;;;;31.16;33.37;99014.59;5077621;27;45540;-80
2023/10/17 11:59:02;;;;;;;;;4.00;4.00;;;;;31.26;34.05;99020.09;5077789;27;45588;-77
2023/10/17 12:01:29;;;;;;;;;2.00;2.00;;;;;31.36;34.01;99006.72;5077676;27;45504;-80
2023/10/17 12:03:57;;;;;;;;;2.67;2.33;;;;;31.33;34.11;98987.06;5077782;28;45429;-81
2023/10/17 12:06:29;;;;;;;;;3.67;3.00;;;;;31.28;33.72;98991.16;5077663;27;45311;-80
2023/10/17 12:08:56;;;;;;;;;2.33;2.00;;;;;31.23;33.52;98999.59;5077725;27;45568;-80
2023/10/17 12:11:24;;;;;;;;;2.00;2.00;;;;;31.11;33.97;98995.19;5077533;27;46510;-80
2023/10/17 12:13:51;;;;;;;;;2.00;2.00;;;;;30.76;34.36;98971.00;5076610;27;45220;-80
2023/10/17 12:16:20;;;;;;;;;2.00;2.00;;;;;30.85;33.94;98972.97;5077638;27;45283;-80
2023/10/17 12:18:46;;;;;;;;;2.00;1.67;;;;;30.86;33.89;98980.94;5077713;27;45375;-80
2023/10/17 12:21:14;;;;;;;;;2.00;2.00;;;;;30.70;34.76;98970.53;5077287;27;45442;-80
2023/10/17 12:23:41;;;;;;;;;2.33;2.00;;;;;29.83;34.71;98831.84;5077356;27;45509;-81
2023/10/17 12:26:19;;;;;;;;;2.00;1.33;;;;;30.58;34.80;98949.03;5077418;27;45401;-79
2023/10/17 12:28:45;;;;;;;;;2.00;2.00;;;;;30.52;35.04;98945.00;5077356;27;45333;-80
2023/10/17 12:31:11;;;;;;;;;3.00;2.33;;;;;30.50;34.74;98942.44;5076804;28;45442;-80
2023/10/17 12:33:36;;;;;;;;;3.00;3.00;;;;;30.47;35.02;98931.88;5077345;27;45433;-80
2023/10/17 12:36:05;;;;;;;;;2.00;2.00;;;;;30.48;35.06;98928.22;5077229;27;45540;-77
2023/10/17 12:38:34;;;;;;;;;3.00;2.33;;;;;30.49;35.07;98919.16;5077929;27;45423;-81
2023/10/17 12:41:03;;;;;;;;;3.00;2.00;;;;;30.42;35.02;98901.78;5077105;28;46245;-81
2023/10/17 12:43:29;;;;;;;;;4.00;4.00;;;;;30.36;34.68;98909.47;5077107;27;45531;-81
2023/10/17 12:45:55;;;;;;;;;2.00;2.00;;;;;30.34;34.53;98914.97;5077145;28;45386;-81
2023/10/17 12:48:21;;;;;;;;;2.33;2.33;;;;;30.37;35.04;98909.34;5077042;28;45228;-80
2023/10/17 12:50:47;;;;;;;;;3.33;3.00;;;;;30.35;35.38;98905.06;5077053;27;45979;-81
2023/10/17 12:53:13;;;;;;;;;2.00;2.00;;;;;30.33;34.96;98897.09;5077086;28;45283;-80
2023/10/17 12:55:40;;;;;;;;;2.33;2.33;;;;;30.27;35.45;98903.78;5077010;27;45408;-78
2023/10/17 12:58:18;;;;;;;;;2.33;2.00;;;;;30.03;34.96;98852.69;5076734;27;45355;-80
2023/10/17 13:00:47;;;;;;;;;2.00;2.00;;;;;30.42;35.60;98891.00;5076627;27;45952;-79
2023/10/17 13:03:14;;;;;;;;;1.67;1.33;;;;;30.50;34.78;98898.44;5076538;27;45444;-76
2023/10/17 13:05:39;;;;;;;;;2.00;2.00;;;;;30.50;34.41;98893.06;5079819;27;45298;-75
2023/10/17 13:08:05;;;;;;;;;2.33;2.33;;;;;30.40;35.20;98884.00;5078562;28;45481;-76
2023/10/17 13:10:31;;;;;;;;;3.00;2.00;;;;;30.42;35.20;98888.31;5078789;27;45529;-78
2023/10/17 13:13:00;;;;;;;;;2.67;2.33;;;;;30.41;35.55;98889.25;5078519;27;45335;-75
2023/10/17 13:15:26;;;;;;;;;2.00;1.00;;;;;30.19;35.06;98851.50;5076756;28;45502;-76
2023/10/17 13:18:00;;;;;;;;;3.67;3.00;;;;;30.38;35.27;98883.25;5078621;27;45199;-79
2023/10/17 13:20:29;;;;;;;;;3.00;3.00;;;;;30.38;34.97;98880.56;5078100;27;46029;-74
2023/10/17 13:23:04;;;;;;;;;3.00;2.00;;;;;30.38;35.18;98856.31;5076816;27;45494;-80
2023/10/17 13:25:38;;;;;;;;;2.00;2.00;;;;;30.69;35.06;98850.19;5079434;27;45321;-78
2023/10/17 13:28:04;;;;;;;;;3.00;2.67;;;;;30.98;34.45;98855.09;5080619;27;45299;-75
2023/10/17 13:30:33;;;;;;;;;3.00;2.00;;;;;31.24;34.27;98861.06;5080075;28;45466;-75
2023/10/17 13:32:59;;;;;;;;;2.33;2.33;;;;;31.03;33.46;98798.94;5079810;27;45488;-75
2023/10/17 13:35:25;;;;;;;;;3.00;2.33;;;;;31.29;34.14;98825.59;5079970;27;45534;-74
2023/10/17 13:37:55;;;;;;;;;2.00;2.00;;;;;31.49;33.64;98838.28;5078880;27;45566;-74
2023/10/17 13:40:23;;;;;;;;;2.00;2.00;;;;;31.70;33.47;98845.59;5079550;27;46144;-74
2023/10/17 13:42:53;;;;;;;;;2.67;2.00;;;;;31.42;33.43;98831.69;5080078;27;45464;-74
2023/10/17 13:45:22;;;;;;;;;1.67;1.67;;;;;31.48;33.41;98852.78;5081543;27;45330;-74
2023/10/17 13:47:55;;;;;;;;;2.00;2.00;;;;;31.12;34.24;98846.75;5081286;27;45338;-74
2023/10/17 13:50:24;;;;;;;;;2.00;2.00;;;;;30.45;33.89;98745.25;5080597;28;46096;-77
2023/10/17 13:52:52;;;;;;;;;2.00;2.00;;;;;31.37;34.44;98855.47;5080521;27;45179;-74
2023/10/17 13:55:27;;;;;;;;;3.00;2.00;;;;;31.62;33.29;98864.28;5079479;28;45294;-74
2023/10/17 13:58:01;;;;;;;;;1.00;1.00;;;;;31.59;33.35;98838.38;5096222;27;45441;-74
2023/10/17 14:00:42;;;;;;;;;3.00;3.00;;;;;31.79;32.65;98836.69;5080396;27;45571;-75
2023/10/17 14:03:09;;;;;;;;;2.00;2.00;;;;;32.02;32.47;98852.81;5080498;27;45488;-76
2023/10/17 14:05:36;;;;;;;;;2.33;1.67;;;;;32.04;32.92;98856.22;5079612;27;45378;-74
2023/10/17 14:08:02;;;;;;;;;4.00;3.00;;;;;32.01;32.49;98835.75;5081145;28;45493;-74
2023/10/17 14:10:28;;;;;;;;;3.00;2.00;;;;;31.95;33.11;98828.13;5079797;27;46275;-75
2023/10/17 14:12:54;;;;;;;;;2.67;2.00;;;;;31.85;33.19;98814.59;5079777;27;45369;-74
2023/10/17 14:15:20;;;;;;;;;3.00;2.00;;;;;31.74;33.36;98784.94;5080072;28;45248;-76